Flight Track Log - Related Links

Times and Time Zones

All times are in EDT time to prevent confusion due to time zone crossing. See the JZA8145 flight status page for this flight to view local times or setup timezone preferences in your user account.

Time Position Orientation Groundspeed Altitude Reporting Facility
EDT Latitude Longitude Course Direction KTS MPH feet Rate Location/Type
Wed 03:07:39 PM 53.2500 -113.5667 166° South 120 138 4,000  Level Edmonton Center
Wed 03:08:39 PM 53.2333 -113.5333 130° Southeast 130 150 5,800 1,650 Climbing Edmonton Center
Wed 03:09:39 PM 53.2000 -113.4833 138° Southeast 150 173 7,300 1,450 Climbing Edmonton Center
Wed 03:10:39 PM 53.1667 -113.4500 149° Southeast 140 161 8,700 1,350 Climbing Edmonton Center
Wed 03:11:00 PM 53.0512 -113.8115 169° South  Level FlightAware Approximate
Wed 03:11:39 PM 53.1167 -113.4667 191° South 170 196 10,000  Level Edmonton Center
Wed 03:12:00 PM 52.9824 -113.7886 169° South  Level FlightAware Approximate
Wed 03:12:39 PM 53.0667 -113.4500 169° South 180 207 11,600  Level Edmonton Center
Wed 03:13:00 PM 52.9137 -113.7655 166° South  Level FlightAware Approximate
Wed 03:13:39 PM 53.0167 -113.4667 191° South 190 219 12,900  Level Edmonton Center
Wed 03:14:39 PM 52.9667 -113.4500 169° South 190 219 14,300 1,400 Climbing Edmonton Center
Wed 03:15:39 PM 52.9167 -113.4833 202° Southwest 190 219 15,700 1,350 Climbing Edmonton Center
Wed 03:16:39 PM 52.8500 -113.4667 171° South 190 219 17,000 650 Climbing Edmonton Center
Wed 03:17:39 PM 52.8000 -113.4500 169° South 220 253 17,000  Level Edmonton Center
Wed 03:18:39 PM 52.7333 -113.4667 189° South 220 253 17,000  Level Edmonton Center
Wed 03:19:39 PM 52.6833 -113.4500 169° South 220 253 17,000  Level Edmonton Center
Wed 03:20:39 PM 52.6000 -113.4667 187° South 210 242 17,000  Level Edmonton Center
Wed 03:21:39 PM 52.5500 -113.4667 180° South 210 242 17,000  Level Edmonton Center
Wed 03:22:39 PM 52.4833 -113.4667 180° South 240 276 17,000  Level Edmonton Center
Wed 03:23:39 PM 52.4000 -113.4500 173° South 260 299 17,000  Level Edmonton Center
Wed 03:24:39 PM 52.3333 -113.4667 189° South 270 311 17,000  Level Edmonton Center
Wed 03:25:39 PM 52.2500 -113.4500 173° South 280 322 17,000  Level Edmonton Center
Wed 03:26:39 PM 52.1833 -113.4667 189° South 280 322 17,000 -100 Level Edmonton Center
Wed 03:27:39 PM 52.1000 -113.4833 187° South 280 322 16,800 -550 Descending Edmonton Center
Wed 03:28:39 PM 52.0333 -113.5167 197° South 290 334 15,900 -950 Descending Edmonton Center
Wed 03:29:39 PM 51.9333 -113.5500 192° South 300 345 14,900 -950 Descending Edmonton Center
Wed 03:30:39 PM 51.8667 -113.6000 205° Southwest 300 345 14,000 -950 Descending Edmonton Center
Wed 03:31:39 PM 51.7833 -113.6333 194° South 290 334 13,000 -950 Descending Edmonton Center
Wed 03:32:39 PM 51.7167 -113.6500 189° South 290 334 12,100 -900 Descending Edmonton Center
Wed 03:33:39 PM 51.6167 -113.6833 192° South 280 322 11,200 -800 Descending Edmonton Center
Wed 03:34:39 PM 51.5667 -113.7500 220° Southwest 260 299 10,500 -700 Descending Edmonton Center
Wed 03:35:39 PM 51.5167 -113.8167 220° Southwest 270 311 9,800 -750 Descending Edmonton Center
Wed 03:36:39 PM 51.4333 -113.8833 207° Southwest 270 311 9,000 -750 Descending Edmonton Center
Wed 03:37:39 PM 51.3833 -113.9333 212° Southwest 260 299 8,300 -900 Descending Edmonton Center
Wed 03:38:39 PM 51.3500 -114.0333 242° Southwest 200 230 7,200 -900 Descending Edmonton Center
Wed 03:39:39 PM 51.3000 -114.0500 192° South 190 219 6,500 -600 Descending Edmonton Center
Wed 03:40:39 PM 51.2500 -114.0500 180° South 170 196 6,000 -500 Descending Edmonton Center

Login

Don't have an account? Register now (free) for customized features, flight alerts, and more!